Terminal Aerodrome Forecast
Issued by NWS

Home | Current Version | Previous Version | Text Only | Print | Product List | Glossary Off
Versions: 1 2 3 4 5 6 7 8 9 10 11 12 13 14 15 16 17 18 19 20 21 22 23 24 25 26 27 28 29 30 31 32 33 34 35 36 37 38 39

000
FTUS43 KLOT 170900 AAB
TAFORD
TAF AMD
KORD 170905Z 1709/1812 03005KT P6SM SCT250
     FM171100 03010KT 3SM BR SCT007 BKN015
      TEMPO 1711/1714 BKN007
     FM171400 05011KT P6SM SCT007 BKN015
     FM171800 05009KT P6SM SCT015 BKN025
     FM172100 04008KT P6SM SCT030 SCT250
     FM180100 03007KT P6SM FEW030
     FM180400 04006KT 4SM HZ SCT030 BKN080=

USA.gov is the U.S. government's official web portal to all federal, state and local government web resources and services.